sensor_id;sensor_type;location;lat;lon;timestamp;P1;durP1;ratioP1;P2;durP2;ratioP2
70459;SDS011;57920;54.796;9.430;2022-12-07T00:00:54;2.60;;;1.50;;
70459;SDS011;57920;54.796;9.430;2022-12-07T00:03:20;2.23;;;1.47;;
70459;SDS011;57920;54.796;9.430;2022-12-07T00:05:46;2.33;;;1.40;;
70459;SDS011;57920;54.796;9.430;2022-12-07T00:08:11;1.47;;;1.37;;
70459;SDS011;57920;54.796;9.430;2022-12-07T00:10:37;2.17;;;1.77;;
70459;SDS011;57920;54.796;9.430;2022-12-07T00:13:02;2.70;;;1.90;;
70459;SDS011;57920;54.796;9.430;2022-12-07T00:15:33;2.00;;;1.77;;
70459;SDS011;57920;54.796;9.430;2022-12-07T00:17:59;2.00;;;1.60;;
70459;SDS011;57920;54.796;9.430;2022-12-07T00:20:25;1.83;;;1.70;;
70459;SDS011;57920;54.796;9.430;2022-12-07T00:22:50;1.83;;;1.70;;
70459;SDS011;57920;54.796;9.430;2022-12-07T00:25:16;1.50;;;1.37;;
70459;SDS011;57920;54.796;9.430;2022-12-07T00:27:41;1.40;;;1.30;;
70459;SDS011;57920;54.796;9.430;2022-12-07T00:30:07;1.53;;;1.43;;
70459;SDS011;57920;54.796;9.430;2022-12-07T00:32:33;2.10;;;1.57;;
70459;SDS011;57920;54.796;9.430;2022-12-07T00:34:59;1.67;;;1.50;;
70459;SDS011;57920;54.796;9.430;2022-12-07T00:37:24;1.77;;;1.67;;
70459;SDS011;57920;54.796;9.430;2022-12-07T00:39:50;2.20;;;1.70;;
70459;SDS011;57920;54.796;9.430;2022-12-07T00:42:15;1.10;;;1.00;;
70459;SDS011;57920;54.796;9.430;2022-12-07T00:44:41;2.00;;;1.73;;
70459;SDS011;57920;54.796;9.430;2022-12-07T00:47:06;2.03;;;1.23;;
70459;SDS011;57920;54.796;9.430;2022-12-07T00:49:32;2.10;;;1.63;;
70459;SDS011;57920;54.796;9.430;2022-12-07T00:51:57;1.60;;;1.50;;
70459;SDS011;57920;54.796;9.430;2022-12-07T00:54:23;1.63;;;1.33;;
70459;SDS011;57920;54.796;9.430;2022-12-07T00:56:48;1.67;;;1.30;;
70459;SDS011;57920;54.796;9.430;2022-12-07T00:59:14;2.27;;;1.50;;
70459;SDS011;57920;54.796;9.430;2022-12-07T01:01:40;1.20;;;1.07;;
70459;SDS011;57920;54.796;9.430;2022-12-07T01:04:05;3.77;;;1.70;;
70459;SDS011;57920;54.796;9.430;2022-12-07T01:06:31;2.60;;;1.43;;
70459;SDS011;57920;54.796;9.430;2022-12-07T01:08:57;1.60;;;1.50;;
70459;SDS011;57920;54.796;9.430;2022-12-07T01:11:24;1.63;;;1.50;;
70459;SDS011;57920;54.796;9.430;2022-12-07T01:13:52;2.43;;;1.70;;
70459;SDS011;57920;54.796;9.430;2022-12-07T01:16:20;1.77;;;1.40;;
70459;SDS011;57920;54.796;9.430;2022-12-07T01:18:51;1.60;;;1.50;;
70459;SDS011;57920;54.796;9.430;2022-12-07T01:21:19;1.67;;;1.37;;
70459;SDS011;57920;54.796;9.430;2022-12-07T01:23:46;1.87;;;1.67;;
70459;SDS011;57920;54.796;9.430;2022-12-07T01:26:13;1.90;;;1.57;;
70459;SDS011;57920;54.796;9.430;2022-12-07T01:28:42;2.30;;;1.23;;
70459;SDS011;57920;54.796;9.430;2022-12-07T01:31:09;1.50;;;1.40;;
70459;SDS011;57920;54.796;9.430;2022-12-07T01:33:37;2.73;;;1.63;;
70459;SDS011;57920;54.796;9.430;2022-12-07T01:36:04;3.53;;;1.60;;
70459;SDS011;57920;54.796;9.430;2022-12-07T01:38:38;1.60;;;1.50;;
70459;SDS011;57920;54.796;9.430;2022-12-07T01:41:04;1.70;;;1.60;;
70459;SDS011;57920;54.796;9.430;2022-12-07T01:43:30;1.47;;;1.33;;
70459;SDS011;57920;54.796;9.430;2022-12-07T01:45:57;1.80;;;1.70;;
70459;SDS011;57920;54.796;9.430;2022-12-07T01:48:34;1.67;;;1.50;;
70459;SDS011;57920;54.796;9.430;2022-12-07T01:51:08;1.60;;;1.30;;
70459;SDS011;57920;54.796;9.430;2022-12-07T01:53:36;1.50;;;1.40;;
70459;SDS011;57920;54.796;9.430;2022-12-07T01:56:08;1.60;;;1.40;;
70459;SDS011;57920;54.796;9.430;2022-12-07T01:58:36;1.40;;;1.30;;
70459;SDS011;57920;54.796;9.430;2022-12-07T02:01:02;2.03;;;1.70;;
70459;SDS011;57920;54.796;9.430;2022-12-07T02:03:32;2.50;;;1.90;;
70459;SDS011;57920;54.796;9.430;2022-12-07T02:06:02;2.87;;;1.80;;
70459;SDS011;57920;54.796;9.430;2022-12-07T02:08:30;1.30;;;1.20;;
70459;SDS011;57920;54.796;9.430;2022-12-07T02:11:00;1.40;;;1.23;;
70459;SDS011;57920;54.796;9.430;2022-12-07T02:13:28;2.03;;;1.53;;
70459;SDS011;57920;54.796;9.430;2022-12-07T02:29:39;2.00;;;1.60;;
70459;SDS011;57920;54.796;9.430;2022-12-07T02:34:50;1.97;;;1.40;;
70459;SDS011;57920;54.796;9.430;2022-12-07T02:39:55;1.33;;;1.23;;
70459;SDS011;57920;54.796;9.430;2022-12-07T02:42:31;1.73;;;1.40;;
70459;SDS011;57920;54.796;9.430;2022-12-07T02:45:02;1.47;;;1.37;;
70459;SDS011;57920;54.796;9.430;2022-12-07T02:47:30;2.37;;;1.70;;
70459;SDS011;57920;54.796;9.430;2022-12-07T02:49:58;1.40;;;1.30;;
70459;SDS011;57920;54.796;9.430;2022-12-07T02:52:23;2.23;;;1.70;;
70459;SDS011;57920;54.796;9.430;2022-12-07T02:54:49;1.50;;;1.40;;
70459;SDS011;57920;54.796;9.430;2022-12-07T02:57:22;1.87;;;1.60;;
70459;SDS011;57920;54.796;9.430;2022-12-07T03:00:13;1.53;;;1.40;;
70459;SDS011;57920;54.796;9.430;2022-12-07T03:02:50;1.50;;;1.40;;
70459;SDS011;57920;54.796;9.430;2022-12-07T03:08:31;1.20;;;0.77;;
70459;SDS011;57920;54.796;9.430;2022-12-07T03:11:10;1.23;;;1.13;;
70459;SDS011;57920;54.796;9.430;2022-12-07T03:16:22;2.27;;;1.70;;
70459;SDS011;57920;54.796;9.430;2022-12-07T03:18:53;1.47;;;1.33;;
70459;SDS011;57920;54.796;9.430;2022-12-07T03:21:26;3.20;;;1.60;;
70459;SDS011;57920;54.796;9.430;2022-12-07T03:23:55;1.13;;;1.03;;
70459;SDS011;57920;54.796;9.430;2022-12-07T03:26:24;1.90;;;1.50;;
70459;SDS011;57920;54.796;9.430;2022-12-07T03:28:57;2.23;;;1.50;;
70459;SDS011;57920;54.796;9.430;2022-12-07T03:31:28;1.77;;;1.50;;
70459;SDS011;57920;54.796;9.430;2022-12-07T03:39:43;1.90;;;1.47;;
70459;SDS011;57920;54.796;9.430;2022-12-07T03:41:51;1.17;;;1.07;;
70459;SDS011;57920;54.796;9.430;2022-12-07T03:44:18;1.73;;;1.57;;
70459;SDS011;57920;54.796;9.430;2022-12-07T03:49:39;1.27;;;1.17;;
70459;SDS011;57920;54.796;9.430;2022-12-07T03:52:12;1.40;;;1.30;;
70459;SDS011;57920;54.796;9.430;2022-12-07T03:57:23;1.83;;;1.30;;
70459;SDS011;57920;54.796;9.430;2022-12-07T03:59:50;1.50;;;1.40;;
70459;SDS011;57920;54.796;9.430;2022-12-07T04:02:18;1.43;;;1.33;;
70459;SDS011;57920;54.796;9.430;2022-12-07T04:04:45;1.37;;;1.27;;
70459;SDS011;57920;54.796;9.430;2022-12-07T04:07:11;1.67;;;1.30;;
70459;SDS011;57920;54.796;9.430;2022-12-07T04:09:37;1.13;;;0.93;;
70459;SDS011;57920;54.796;9.430;2022-12-07T04:12:03;1.90;;;1.57;;
70459;SDS011;57920;54.796;9.430;2022-12-07T04:14:29;1.70;;;1.40;;
70459;SDS011;57920;54.796;9.430;2022-12-07T04:16:55;2.73;;;1.47;;
70459;SDS011;57920;54.796;9.430;2022-12-07T04:19:23;1.60;;;1.50;;
70459;SDS011;57920;54.796;9.430;2022-12-07T04:21:51;1.87;;;1.43;;
70459;SDS011;57920;54.796;9.430;2022-12-07T04:24:16;1.40;;;1.30;;
70459;SDS011;57920;54.796;9.430;2022-12-07T04:26:43;1.27;;;1.10;;
70459;SDS011;57920;54.796;9.430;2022-12-07T04:29:09;1.73;;;1.23;;
70459;SDS011;57920;54.796;9.430;2022-12-07T04:31:35;1.70;;;1.33;;
70459;SDS011;57920;54.796;9.430;2022-12-07T04:34:02;1.93;;;1.30;;
70459;SDS011;57920;54.796;9.430;2022-12-07T04:36:28;0.90;;;0.83;;
70459;SDS011;57920;54.796;9.430;2022-12-07T04:38:54;1.10;;;0.90;;
70459;SDS011;57920;54.796;9.430;2022-12-07T04:41:20;2.13;;;1.50;;
70459;SDS011;57920;54.796;9.430;2022-12-07T04:43:57;1.50;;;1.40;;
70459;SDS011;57920;54.796;9.430;2022-12-07T04:46:25;2.27;;;1.10;;
70459;SDS011;57920;54.796;9.430;2022-12-07T04:48:52;1.40;;;1.30;;
70459;SDS011;57920;54.796;9.430;2022-12-07T04:51:21;1.73;;;1.10;;
70459;SDS011;57920;54.796;9.430;2022-12-07T04:53:48;1.10;;;1.00;;
70459;SDS011;57920;54.796;9.430;2022-12-07T04:56:15;1.27;;;1.07;;
70459;SDS011;57920;54.796;9.430;2022-12-07T04:58:41;1.83;;;1.10;;
70459;SDS011;57920;54.796;9.430;2022-12-07T05:01:07;1.33;;;1.03;;
70459;SDS011;57920;54.796;9.430;2022-12-07T05:03:33;1.67;;;1.30;;
70459;SDS011;57920;54.796;9.430;2022-12-07T05:06:00;1.30;;;1.07;;
70459;SDS011;57920;54.796;9.430;2022-12-07T05:08:25;1.40;;;1.20;;
70459;SDS011;57920;54.796;9.430;2022-12-07T05:10:51;1.73;;;0.93;;
70459;SDS011;57920;54.796;9.430;2022-12-07T05:13:16;1.37;;;1.20;;
70459;SDS011;57920;54.796;9.430;2022-12-07T05:15:42;1.87;;;1.10;;
70459;SDS011;57920;54.796;9.430;2022-12-07T05:18:09;0.77;;;0.77;;
70459;SDS011;57920;54.796;9.430;2022-12-07T05:20:37;1.30;;;1.00;;
70459;SDS011;57920;54.796;9.430;2022-12-07T05:23:03;2.20;;;1.20;;
70459;SDS011;57920;54.796;9.430;2022-12-07T05:25:29;2.10;;;1.40;;
70459;SDS011;57920;54.796;9.430;2022-12-07T05:27:55;1.20;;;1.10;;
70459;SDS011;57920;54.796;9.430;2022-12-07T05:30:21;1.57;;;1.03;;
70459;SDS011;57920;54.796;9.430;2022-12-07T05:32:47;1.07;;;0.87;;
70459;SDS011;57920;54.796;9.430;2022-12-07T05:35:13;1.30;;;1.00;;
70459;SDS011;57920;54.796;9.430;2022-12-07T05:37:39;1.90;;;1.13;;
70459;SDS011;57920;54.796;9.430;2022-12-07T05:40:13;1.03;;;0.90;;
70459;SDS011;57920;54.796;9.430;2022-12-07T05:42:39;0.87;;;0.87;;
70459;SDS011;57920;54.796;9.430;2022-12-07T05:45:05;1.40;;;0.83;;
70459;SDS011;57920;54.796;9.430;2022-12-07T05:47:32;1.10;;;1.00;;
70459;SDS011;57920;54.796;9.430;2022-12-07T05:49:57;1.03;;;1.03;;
70459;SDS011;57920;54.796;9.430;2022-12-07T05:52:23;1.87;;;1.30;;
70459;SDS011;57920;54.796;9.430;2022-12-07T05:54:49;1.60;;;0.97;;
70459;SDS011;57920;54.796;9.430;2022-12-07T05:57:14;1.00;;;0.90;;
70459;SDS011;57920;54.796;9.430;2022-12-07T05:59:40;1.40;;;0.80;;
70459;SDS011;57920;54.796;9.430;2022-12-07T06:02:07;1.00;;;0.80;;
70459;SDS011;57920;54.796;9.430;2022-12-07T06:04:36;1.37;;;1.00;;
70459;SDS011;57920;54.796;9.430;2022-12-07T06:07:04;1.27;;;1.17;;
70459;SDS011;57920;54.796;9.430;2022-12-07T06:09:30;1.50;;;1.00;;
70459;SDS011;57920;54.796;9.430;2022-12-07T06:11:58;1.10;;;1.00;;
70459;SDS011;57920;54.796;9.430;2022-12-07T06:14:43;1.50;;;1.20;;
70459;SDS011;57920;54.796;9.430;2022-12-07T06:17:09;2.13;;;1.13;;
70459;SDS011;57920;54.796;9.430;2022-12-07T06:19:35;1.87;;;1.27;;
70459;SDS011;57920;54.796;9.430;2022-12-07T06:22:01;2.87;;;1.30;;
70459;SDS011;57920;54.796;9.430;2022-12-07T06:24:27;1.73;;;1.00;;
70459;SDS011;57920;54.796;9.430;2022-12-07T06:26:53;1.00;;;0.90;;
70459;SDS011;57920;54.796;9.430;2022-12-07T06:29:19;1.53;;;1.20;;
70459;SDS011;57920;54.796;9.430;2022-12-07T06:31:44;1.20;;;0.97;;
70459;SDS011;57920;54.796;9.430;2022-12-07T06:34:11;2.03;;;0.97;;
70459;SDS011;57920;54.796;9.430;2022-12-07T06:36:40;1.23;;;0.90;;
70459;SDS011;57920;54.796;9.430;2022-12-07T06:39:06;2.20;;;1.00;;
70459;SDS011;57920;54.796;9.430;2022-12-07T06:41:34;1.10;;;0.90;;
70459;SDS011;57920;54.796;9.430;2022-12-07T06:44:04;2.17;;;1.00;;
70459;SDS011;57920;54.796;9.430;2022-12-07T06:46:33;1.20;;;0.97;;
70459;SDS011;57920;54.796;9.430;2022-12-07T06:49:00;1.47;;;1.20;;
70459;SDS011;57920;54.796;9.430;2022-12-07T06:51:26;2.93;;;1.40;;
70459;SDS011;57920;54.796;9.430;2022-12-07T06:53:52;4.13;;;1.47;;
70459;SDS011;57920;54.796;9.430;2022-12-07T06:56:17;7.47;;;1.30;;
70459;SDS011;57920;54.796;9.430;2022-12-07T06:58:43;11.03;;;2.03;;
70459;SDS011;57920;54.796;9.430;2022-12-07T07:01:09;10.83;;;2.17;;
70459;SDS011;57920;54.796;9.430;2022-12-07T07:03:36;63.87;;;36.23;;
70459;SDS011;57920;54.796;9.430;2022-12-07T07:06:02;492.20;;;272.70;;
70459;SDS011;57920;54.796;9.430;2022-12-07T07:08:27;281.63;;;134.40;;
70459;SDS011;57920;54.796;9.430;2022-12-07T07:10:53;239.03;;;121.57;;
70459;SDS011;57920;54.796;9.430;2022-12-07T07:13:18;220.23;;;113.87;;
70459;SDS011;57920;54.796;9.430;2022-12-07T07:22:28;160.87;;;82.13;;
70459;SDS011;57920;54.796;9.430;2022-12-07T07:24:53;182.33;;;93.43;;
70459;SDS011;57920;54.796;9.430;2022-12-07T07:27:19;164.33;;;84.67;;
70459;SDS011;57920;54.796;9.430;2022-12-07T07:29:44;165.53;;;80.77;;
70459;SDS011;57920;54.796;9.430;2022-12-07T07:32:10;149.17;;;79.43;;
70459;SDS011;57920;54.796;9.430;2022-12-07T07:34:35;145.57;;;72.40;;
70459;SDS011;57920;54.796;9.430;2022-12-07T07:37:01;140.90;;;69.20;;
70459;SDS011;57920;54.796;9.430;2022-12-07T07:39:26;123.70;;;65.17;;
70459;SDS011;57920;54.796;9.430;2022-12-07T07:41:52;115.23;;;53.60;;
70459;SDS011;57920;54.796;9.430;2022-12-07T07:44:17;120.97;;;61.07;;
70459;SDS011;57920;54.796;9.430;2022-12-07T07:49:55;85.60;;;43.50;;
70459;SDS011;57920;54.796;9.430;2022-12-07T07:52:22;88.73;;;49.90;;
70459;SDS011;57920;54.796;9.430;2022-12-07T07:54:47;87.87;;;48.63;;
70459;SDS011;57920;54.796;9.430;2022-12-07T07:57:13;88.13;;;48.30;;
70459;SDS011;57920;54.796;9.430;2022-12-07T07:59:38;77.13;;;38.83;;
70459;SDS011;57920;54.796;9.430;2022-12-07T08:02:04;65.57;;;35.73;;
70459;SDS011;57920;54.796;9.430;2022-12-07T08:04:29;84.40;;;43.47;;
70459;SDS011;57920;54.796;9.430;2022-12-07T08:06:56;56.70;;;32.17;;
70459;SDS011;57920;54.796;9.430;2022-12-07T08:09:22;62.53;;;34.50;;
70459;SDS011;57920;54.796;9.430;2022-12-07T08:11:47;65.33;;;35.13;;
70459;SDS011;57920;54.796;9.430;2022-12-07T08:14:13;65.60;;;35.30;;
70459;SDS011;57920;54.796;9.430;2022-12-07T08:16:54;62.53;;;32.57;;
70459;SDS011;57920;54.796;9.430;2022-12-07T08:19:19;57.60;;;30.20;;
70459;SDS011;57920;54.796;9.430;2022-12-07T08:21:45;58.80;;;31.80;;
70459;SDS011;57920;54.796;9.430;2022-12-07T08:24:11;44.63;;;26.87;;
70459;SDS011;57920;54.796;9.430;2022-12-07T08:26:36;44.13;;;21.77;;
70459;SDS011;57920;54.796;9.430;2022-12-07T08:29:02;44.53;;;25.00;;
70459;SDS011;57920;54.796;9.430;2022-12-07T08:31:28;37.30;;;21.03;;
70459;SDS011;57920;54.796;9.430;2022-12-07T08:33:53;40.73;;;23.77;;
70459;SDS011;57920;54.796;9.430;2022-12-07T08:36:19;42.57;;;24.17;;
70459;SDS011;57920;54.796;9.430;2022-12-07T08:38:46;36.40;;;21.07;;
70459;SDS011;57920;54.796;9.430;2022-12-07T08:41:12;38.63;;;20.67;;
70459;SDS011;57920;54.796;9.430;2022-12-07T08:43:38;35.43;;;19.50;;
70459;SDS011;57920;54.796;9.430;2022-12-07T08:46:06;33.50;;;19.47;;
70459;SDS011;57920;54.796;9.430;2022-12-07T08:48:43;32.87;;;19.10;;
70459;SDS011;57920;54.796;9.430;2022-12-07T08:51:15;28.60;;;17.13;;
70459;SDS011;57920;54.796;9.430;2022-12-07T08:53:41;35.97;;;17.20;;
70459;SDS011;57920;54.796;9.430;2022-12-07T08:56:08;28.00;;;13.53;;
70459;SDS011;57920;54.796;9.430;2022-12-07T08:58:34;37.73;;;16.60;;
70459;SDS011;57920;54.796;9.430;2022-12-07T09:01:01;55.43;;;24.63;;
70459;SDS011;57920;54.796;9.430;2022-12-07T09:03:26;41.87;;;18.63;;
70459;SDS011;57920;54.796;9.430;2022-12-07T09:05:52;25.20;;;13.60;;
70459;SDS011;57920;54.796;9.430;2022-12-07T09:08:18;25.03;;;13.07;;
70459;SDS011;57920;54.796;9.430;2022-12-07T09:10:45;30.30;;;14.93;;
70459;SDS011;57920;54.796;9.430;2022-12-07T09:13:11;27.63;;;14.70;;
70459;SDS011;57920;54.796;9.430;2022-12-07T09:15:42;23.93;;;13.40;;
70459;SDS011;57920;54.796;9.430;2022-12-07T09:18:08;22.20;;;12.33;;
70459;SDS011;57920;54.796;9.430;2022-12-07T09:20:33;24.10;;;13.00;;
70459;SDS011;57920;54.796;9.430;2022-12-07T09:22:59;25.60;;;11.90;;
70459;SDS011;57920;54.796;9.430;2022-12-07T09:25:24;19.53;;;11.53;;
70459;SDS011;57920;54.796;9.430;2022-12-07T09:27:55;55.60;;;22.60;;
70459;SDS011;57920;54.796;9.430;2022-12-07T09:30:21;50.33;;;18.53;;
70459;SDS011;57920;54.796;9.430;2022-12-07T09:32:47;49.97;;;18.43;;
70459;SDS011;57920;54.796;9.430;2022-12-07T09:35:13;40.83;;;15.63;;
70459;SDS011;57920;54.796;9.430;2022-12-07T09:37:38;33.60;;;15.27;;
70459;SDS011;57920;54.796;9.430;2022-12-07T09:40:04;34.90;;;15.27;;
70459;SDS011;57920;54.796;9.430;2022-12-07T09:45:19;28.37;;;12.27;;
70459;SDS011;57920;54.796;9.430;2022-12-07T09:47:48;29.20;;;12.83;;
70459;SDS011;57920;54.796;9.430;2022-12-07T09:50:16;26.10;;;11.67;;
70459;SDS011;57920;54.796;9.430;2022-12-07T09:52:48;27.37;;;11.70;;
70459;SDS011;57920;54.796;9.430;2022-12-07T09:55:16;24.60;;;11.50;;
70459;SDS011;57920;54.796;9.430;2022-12-07T09:57:46;18.70;;;8.90;;
70459;SDS011;57920;54.796;9.430;2022-12-07T10:00:13;17.73;;;8.40;;
70459;SDS011;57920;54.796;9.430;2022-12-07T10:02:42;16.67;;;10.10;;
70459;SDS011;57920;54.796;9.430;2022-12-07T10:05:12;16.80;;;8.90;;
70459;SDS011;57920;54.796;9.430;2022-12-07T10:07:40;14.33;;;7.43;;
70459;SDS011;57920;54.796;9.430;2022-12-07T10:10:09;15.47;;;7.33;;
70459;SDS011;57920;54.796;9.430;2022-12-07T10:21:22;18.10;;;7.40;;
70459;SDS011;57920;54.796;9.430;2022-12-07T10:26:34;13.30;;;6.77;;
70459;SDS011;57920;54.796;9.430;2022-12-07T10:29:04;11.10;;;6.50;;
70459;SDS011;57920;54.796;9.430;2022-12-07T10:31:43;12.53;;;5.67;;
70459;SDS011;57920;54.796;9.430;2022-12-07T10:36:50;11.47;;;6.33;;
70459;SDS011;57920;54.796;9.430;2022-12-07T10:39:17;14.40;;;5.70;;
70459;SDS011;57920;54.796;9.430;2022-12-07T10:42:00;8.27;;;4.30;;
70459;SDS011;57920;54.796;9.430;2022-12-07T10:44:28;9.27;;;6.13;;
70459;SDS011;57920;54.796;9.430;2022-12-07T11:00:24;8.33;;;4.10;;
70459;SDS011;57920;54.796;9.430;2022-12-07T11:10:47;22.33;;;14.20;;
70459;SDS011;57920;54.796;9.430;2022-12-07T11:13:33;27.20;;;16.27;;
70459;SDS011;57920;54.796;9.430;2022-12-07T11:16:16;25.50;;;15.27;;
70459;SDS011;57920;54.796;9.430;2022-12-07T11:18:59;30.27;;;15.07;;
70459;SDS011;57920;54.796;9.430;2022-12-07T11:21:40;25.43;;;13.10;;
70459;SDS011;57920;54.796;9.430;2022-12-07T11:24:17;21.50;;;12.73;;
70459;SDS011;57920;54.796;9.430;2022-12-07T11:29:32;19.27;;;11.87;;
70459;SDS011;57920;54.796;9.430;2022-12-07T11:37:57;12.00;;;8.60;;
70459;SDS011;57920;54.796;9.430;2022-12-07T11:40:27;18.13;;;8.77;;
70459;SDS011;57920;54.796;9.430;2022-12-07T11:43:18;12.13;;;9.17;;
70459;SDS011;57920;54.796;9.430;2022-12-07T11:46:12;12.87;;;8.57;;
70459;SDS011;57920;54.796;9.430;2022-12-07T11:48:43;14.70;;;8.93;;
70459;SDS011;57920;54.796;9.430;2022-12-07T11:51:14;11.53;;;8.50;;
70459;SDS011;57920;54.796;9.430;2022-12-07T11:56:15;8.93;;;7.50;;
70459;SDS011;57920;54.796;9.430;2022-12-07T11:59:02;7.70;;;6.83;;
70459;SDS011;57920;54.796;9.430;2022-12-07T12:06:34;12.13;;;6.87;;
70459;SDS011;57920;54.796;9.430;2022-12-07T12:20:50;4.77;;;3.93;;
70459;SDS011;57920;54.796;9.430;2022-12-07T12:23:27;7.27;;;5.27;;
70459;SDS011;57920;54.796;9.430;2022-12-07T12:26:02;7.73;;;5.23;;
70459;SDS011;57920;54.796;9.430;2022-12-07T12:31:11;99.07;;;29.80;;
70459;SDS011;57920;54.796;9.430;2022-12-07T12:33:43;98.67;;;29.67;;
70459;SDS011;57920;54.796;9.430;2022-12-07T12:50:11;60.03;;;24.73;;
70459;SDS011;57920;54.796;9.430;2022-12-07T12:57:35;69.37;;;24.67;;
70459;SDS011;57920;54.796;9.430;2022-12-07T13:00:18;55.33;;;19.40;;
70459;SDS011;57920;54.796;9.430;2022-12-07T13:02:53;50.67;;;21.07;;
70459;SDS011;57920;54.796;9.430;2022-12-07T13:05:25;55.57;;;21.07;;
70459;SDS011;57920;54.796;9.430;2022-12-07T13:10:34;45.10;;;17.93;;
70459;SDS011;57920;54.796;9.430;2022-12-07T13:15:51;34.60;;;16.00;;
70459;SDS011;57920;54.796;9.430;2022-12-07T13:18:40;31.97;;;13.33;;
70459;SDS011;57920;54.796;9.430;2022-12-07T13:23:52;298.23;;;93.63;;
70459;SDS011;57920;54.796;9.430;2022-12-07T13:34:32;180.53;;;71.47;;
70459;SDS011;57920;54.796;9.430;2022-12-07T13:37:10;129.17;;;53.97;;
70459;SDS011;57920;54.796;9.430;2022-12-07T13:39:50;138.80;;;57.10;;
70459;SDS011;57920;54.796;9.430;2022-12-07T13:51:01;72.77;;;28.30;;
70459;SDS011;57920;54.796;9.430;2022-12-07T13:53:28;142.40;;;44.97;;
70459;SDS011;57920;54.796;9.430;2022-12-07T13:55:58;128.90;;;41.50;;
70459;SDS011;57920;54.796;9.430;2022-12-07T13:58:25;119.37;;;39.43;;
70459;SDS011;57920;54.796;9.430;2022-12-07T14:00:54;106.97;;;38.73;;
70459;SDS011;57920;54.796;9.430;2022-12-07T14:03:23;114.00;;;38.37;;
70459;SDS011;57920;54.796;9.430;2022-12-07T14:06:03;84.23;;;33.97;;
70459;SDS011;57920;54.796;9.430;2022-12-07T14:08:32;88.27;;;32.97;;
70459;SDS011;57920;54.796;9.430;2022-12-07T14:10:57;79.30;;;29.60;;
70459;SDS011;57920;54.796;9.430;2022-12-07T14:13:29;74.90;;;28.90;;
70459;SDS011;57920;54.796;9.430;2022-12-07T14:19:00;48.80;;;20.67;;
70459;SDS011;57920;54.796;9.430;2022-12-07T14:21:32;135.63;;;33.43;;
70459;SDS011;57920;54.796;9.430;2022-12-07T14:24:17;90.93;;;27.90;;
70459;SDS011;57920;54.796;9.430;2022-12-07T14:26:48;59.93;;;23.53;;
70459;SDS011;57920;54.796;9.430;2022-12-07T14:29:18;78.37;;;24.97;;
70459;SDS011;57920;54.796;9.430;2022-12-07T14:31:46;53.37;;;23.87;;
70459;SDS011;57920;54.796;9.430;2022-12-07T14:34:11;34.83;;;17.30;;
70459;SDS011;57920;54.796;9.430;2022-12-07T14:36:37;59.10;;;17.23;;
70459;SDS011;57920;54.796;9.430;2022-12-07T14:39:03;44.60;;;19.67;;
70459;SDS011;57920;54.796;9.430;2022-12-07T14:41:28;46.37;;;18.30;;
70459;SDS011;57920;54.796;9.430;2022-12-07T14:44:12;31.80;;;17.30;;
70459;SDS011;57920;54.796;9.430;2022-12-07T14:46:48;30.60;;;17.93;;
70459;SDS011;57920;54.796;9.430;2022-12-07T14:49:14;32.40;;;17.13;;
70459;SDS011;57920;54.796;9.430;2022-12-07T14:51:40;26.40;;;13.47;;
70459;SDS011;57920;54.796;9.430;2022-12-07T14:54:07;32.37;;;14.47;;
70459;SDS011;57920;54.796;9.430;2022-12-07T14:56:42;29.60;;;14.33;;
70459;SDS011;57920;54.796;9.430;2022-12-07T14:59:08;26.23;;;14.47;;
70459;SDS011;57920;54.796;9.430;2022-12-07T15:01:35;29.73;;;14.20;;
70459;SDS011;57920;54.796;9.430;2022-12-07T15:04:00;28.27;;;12.50;;
70459;SDS011;57920;54.796;9.430;2022-12-07T15:06:26;25.83;;;11.73;;
70459;SDS011;57920;54.796;9.430;2022-12-07T15:08:52;22.20;;;11.27;;
70459;SDS011;57920;54.796;9.430;2022-12-07T15:11:18;27.93;;;11.23;;
70459;SDS011;57920;54.796;9.430;2022-12-07T15:13:43;21.70;;;11.37;;
70459;SDS011;57920;54.796;9.430;2022-12-07T15:16:31;21.93;;;10.70;;
70459;SDS011;57920;54.796;9.430;2022-12-07T15:18:56;20.17;;;9.97;;
70459;SDS011;57920;54.796;9.430;2022-12-07T15:21:22;21.43;;;10.10;;
70459;SDS011;57920;54.796;9.430;2022-12-07T15:23:47;18.87;;;9.67;;
70459;SDS011;57920;54.796;9.430;2022-12-07T15:26:13;16.30;;;8.83;;
70459;SDS011;57920;54.796;9.430;2022-12-07T15:28:39;14.03;;;6.93;;
70459;SDS011;57920;54.796;9.430;2022-12-07T15:31:10;12.73;;;7.77;;
70459;SDS011;57920;54.796;9.430;2022-12-07T15:33:39;14.80;;;7.73;;
70459;SDS011;57920;54.796;9.430;2022-12-07T15:36:05;16.10;;;8.63;;
70459;SDS011;57920;54.796;9.430;2022-12-07T15:38:31;10.20;;;5.77;;
70459;SDS011;57920;54.796;9.430;2022-12-07T15:40:57;15.53;;;7.37;;
70459;SDS011;57920;54.796;9.430;2022-12-07T15:43:22;10.03;;;6.80;;
70459;SDS011;57920;54.796;9.430;2022-12-07T15:46:23;11.73;;;5.90;;
70459;SDS011;57920;54.796;9.430;2022-12-07T15:48:53;9.00;;;5.77;;
70459;SDS011;57920;54.796;9.430;2022-12-07T15:51:19;7.83;;;4.83;;
70459;SDS011;57920;54.796;9.430;2022-12-07T15:53:45;9.77;;;6.07;;
70459;SDS011;57920;54.796;9.430;2022-12-07T15:56:11;10.20;;;5.77;;
70459;SDS011;57920;54.796;9.430;2022-12-07T15:58:37;8.63;;;5.07;;
70459;SDS011;57920;54.796;9.430;2022-12-07T16:01:09;6.97;;;4.73;;
70459;SDS011;57920;54.796;9.430;2022-12-07T16:03:39;8.97;;;5.20;;
70459;SDS011;57920;54.796;9.430;2022-12-07T16:06:05;6.80;;;4.87;;
70459;SDS011;57920;54.796;9.430;2022-12-07T16:08:31;7.00;;;4.67;;
70459;SDS011;57920;54.796;9.430;2022-12-07T16:10:56;5.07;;;4.20;;
70459;SDS011;57920;54.796;9.430;2022-12-07T16:13:22;6.73;;;4.93;;
70459;SDS011;57920;54.796;9.430;2022-12-07T16:16:07;5.53;;;4.33;;
70459;SDS011;57920;54.796;9.430;2022-12-07T16:18:38;6.23;;;3.83;;
70459;SDS011;57920;54.796;9.430;2022-12-07T16:21:04;7.87;;;4.60;;
70459;SDS011;57920;54.796;9.430;2022-12-07T16:23:30;6.63;;;4.30;;
70459;SDS011;57920;54.796;9.430;2022-12-07T16:26:03;7.97;;;4.00;;
70459;SDS011;57920;54.796;9.430;2022-12-07T16:28:33;4.83;;;3.97;;
70459;SDS011;57920;54.796;9.430;2022-12-07T16:31:03;4.30;;;3.63;;
70459;SDS011;57920;54.796;9.430;2022-12-07T16:33:31;5.43;;;3.73;;
70459;SDS011;57920;54.796;9.430;2022-12-07T16:35:58;5.53;;;3.67;;
70459;SDS011;57920;54.796;9.430;2022-12-07T16:38:25;6.40;;;3.93;;
70459;SDS011;57920;54.796;9.430;2022-12-07T16:40:51;4.47;;;3.07;;
70459;SDS011;57920;54.796;9.430;2022-12-07T16:43:16;5.53;;;3.17;;
70459;SDS011;57920;54.796;9.430;2022-12-07T16:45:46;4.07;;;3.60;;
70459;SDS011;57920;54.796;9.430;2022-12-07T16:48:12;5.03;;;3.07;;
70459;SDS011;57920;54.796;9.430;2022-12-07T16:50:39;4.43;;;3.13;;
70459;SDS011;57920;54.796;9.430;2022-12-07T16:53:06;2.83;;;2.53;;
70459;SDS011;57920;54.796;9.430;2022-12-07T16:55:35;5.30;;;3.43;;
70459;SDS011;57920;54.796;9.430;2022-12-07T16:58:05;3.93;;;2.53;;
70459;SDS011;57920;54.796;9.430;2022-12-07T17:00:31;4.67;;;3.00;;
70459;SDS011;57920;54.796;9.430;2022-12-07T17:02:57;4.20;;;2.57;;
70459;SDS011;57920;54.796;9.430;2022-12-07T17:05:23;3.03;;;2.60;;
70459;SDS011;57920;54.796;9.430;2022-12-07T17:07:49;3.33;;;2.33;;
70459;SDS011;57920;54.796;9.430;2022-12-07T17:10:15;3.73;;;2.80;;
70459;SDS011;57920;54.796;9.430;2022-12-07T17:12:41;3.37;;;2.53;;
70459;SDS011;57920;54.796;9.430;2022-12-07T17:15:06;4.37;;;2.77;;
70459;SDS011;57920;54.796;9.430;2022-12-07T17:17:44;4.27;;;2.73;;
70459;SDS011;57920;54.796;9.430;2022-12-07T17:20:10;4.20;;;2.60;;
70459;SDS011;57920;54.796;9.430;2022-12-07T17:22:39;4.90;;;2.90;;
70459;SDS011;57920;54.796;9.430;2022-12-07T17:25:05;4.87;;;2.33;;